Time;durP1;ratioP1;P1;durP2;ratioP2;P2;SDS_P1;SDS_P2;PMS_P1;PMS_P2;Temp;Humidity;BMP_temperature;BMP_pressure;BME280_temperature;BME280_humidity;BME280_pressure;Samples;Min_cycle;Max_cycle;Signal;HPM_P1;HPM_P2
2023/01/15 00:00:40;;;;;;;25.25;12.38;;;;;;;7.40;100.00;100456.59;4983218;28;20039;-63
2023/01/15 00:03:05;;;;;;;22.73;11.57;;;;;;;7.32;100.00;100457.22;4983935;28;20236;-63
2023/01/15 00:05:30;;;;;;;23.27;10.63;;;;;;;7.39;100.00;100462.00;4983297;28;20386;-63
2023/01/15 00:07:56;;;;;;;21.85;10.32;;;;;;;7.50;100.00;100454.03;4982537;28;20043;-64
2023/01/15 00:10:21;;;;;;;19.70;10.25;;;;;;;7.72;100.00;100455.75;4984476;28;20092;-65
2023/01/15 00:12:47;;;;;;;21.25;9.93;;;;;;;7.66;100.00;100443.91;4985007;28;20081;-63
2023/01/15 00:15:12;;;;;;;23.90;11.55;;;;;;;7.89;100.00;100468.38;4984642;28;20038;-63
2023/01/15 00:17:38;;;;;;;18.60;10.13;;;;;;;8.23;100.00;100464.59;4986869;28;20330;-63
2023/01/15 00:20:03;;;;;;;23.23;11.27;;;;;;;8.20;100.00;100461.38;4988011;28;20054;-63
2023/01/15 00:22:29;;;;;;;22.27;12.20;;;;;;;8.41;100.00;100471.97;4982713;28;20054;-62
2023/01/15 00:27:38;;;;;;;19.58;9.63;;;;;;;8.33;100.00;100464.72;4984075;28;20038;-66
2023/01/15 00:30:06;;;;;;;17.27;9.25;;;;;;;8.25;100.00;100465.31;4982922;28;20038;-63
2023/01/15 00:32:31;;;;;;;19.42;9.05;;;;;;;8.07;100.00;100466.00;4982730;28;20046;-63
2023/01/15 00:34:58;;;;;;;16.20;8.73;;;;;;;8.13;100.00;100461.06;4983582;28;20382;-64
2023/01/15 00:37:24;;;;;;;17.13;8.80;;;;;;;7.89;100.00;100458.66;4983187;28;20079;-65
2023/01/15 00:39:49;;;;;;;18.98;9.02;;;;;;;7.95;100.00;100459.97;4983121;28;20035;-63
2023/01/15 00:42:16;;;;;;;17.80;8.57;;;;;;;8.01;100.00;100462.91;4983711;28;20050;-63
2023/01/15 00:44:42;;;;;;;14.88;7.45;;;;;;;7.93;100.00;100469.81;4981806;28;20046;-62
2023/01/15 00:47:13;;;;;;;16.30;8.43;;;;;;;7.96;100.00;100451.91;4980651;28;20042;-63
2023/01/15 00:49:38;;;;;;;15.25;7.90;;;;;;;8.06;100.00;100461.69;4983065;28;20041;-65
2023/01/15 00:52:04;;;;;;;18.75;9.30;;;;;;;8.07;100.00;100456.28;4984065;28;20054;-64
2023/01/15 00:54:30;;;;;;;17.83;8.90;;;;;;;7.98;100.00;100455.25;4982111;28;20042;-64
2023/01/15 00:56:55;;;;;;;17.25;8.77;;;;;;;7.92;100.00;100457.56;4982533;28;20026;-63
2023/01/15 00:59:21;;;;;;;16.00;8.48;;;;;;;7.73;100.00;100460.06;4981813;28;20030;-65
2023/01/15 01:01:46;;;;;;;18.25;8.73;;;;;;;7.72;100.00;100461.88;4981449;28;20347;-65
2023/01/15 01:04:11;;;;;;;17.10;9.57;;;;;;;7.93;100.00;100457.44;4982371;28;20085;-63
2023/01/15 01:06:37;;;;;;;21.73;9.75;;;;;;;7.76;100.00;100454.53;4982323;28;20064;-63
2023/01/15 01:09:02;;;;;;;21.80;10.55;;;;;;;7.61;100.00;100462.75;4983125;28;20049;-62
2023/01/15 01:11:32;;;;;;;22.98;10.32;;;;;;;7.63;100.00;100460.81;4982933;28;20331;-63
2023/01/15 01:13:59;;;;;;;21.45;10.57;;;;;;;7.78;100.00;100460.53;4981479;28;20386;-65
2023/01/15 01:16:32;;;;;;;21.58;10.25;;;;;;;7.65;100.00;100455.44;4979842;28;20070;-64
2023/01/15 01:19:00;;;;;;;23.92;11.75;;;;;;;7.68;100.00;100452.53;4980700;28;20119;-63
2023/01/15 01:21:26;;;;;;;24.63;12.32;;;;;;;7.81;100.00;100455.84;4983788;28;20038;-62
2023/01/15 01:23:52;;;;;;;25.45;12.60;;;;;;;7.78;100.00;100453.44;4980783;28;20098;-64
2023/01/15 01:26:18;;;;;;;24.98;12.13;;;;;;;7.75;100.00;100456.34;4979969;28;20130;-65
2023/01/15 01:28:49;;;;;;;24.77;12.02;;;;;;;7.62;100.00;100451.25;4980932;28;20061;-65
2023/01/15 01:31:14;;;;;;;28.60;14.65;;;;;;;7.67;100.00;100448.22;4982598;28;20035;-63
2023/01/15 01:33:39;;;;;;;27.60;13.98;;;;;;;7.60;100.00;100447.06;4982877;28;20286;-63
2023/01/15 01:36:05;;;;;;;28.30;12.38;;;;;;;7.64;100.00;100446.69;4982480;28;20046;-63
2023/01/15 01:38:31;;;;;;;26.02;12.93;;;;;;;7.57;100.00;100452.59;4981962;28;20054;-63
2023/01/15 01:40:56;;;;;;;28.40;14.07;;;;;;;7.73;100.00;100450.34;4981913;28;20038;-64
2023/01/15 01:43:27;;;;;;;21.27;11.30;;;;;;;7.63;100.00;100445.00;4982469;28;20038;-65
2023/01/15 01:45:52;;;;;;;25.98;11.60;;;;;;;7.65;100.00;100447.50;4981918;28;20053;-62
2023/01/15 01:48:23;;;;;;;24.88;11.38;;;;;;;7.59;100.00;100445.38;4981449;28;20324;-63
2023/01/15 01:50:50;;;;;;;29.77;13.50;;;;;;;7.54;100.00;100439.66;4981683;28;20387;-63
2023/01/15 01:53:27;;;;;;;24.38;12.30;;;;;;;7.75;100.00;100450.22;4981694;28;20065;-64
2023/01/15 01:55:54;;;;;;;27.02;14.45;;;;;;;7.88;100.00;100446.44;4981577;28;20320;-64
2023/01/15 01:58:23;;;;;;;28.67;14.95;;;;;;;7.72;100.00;100450.47;4980933;28;20046;-63
2023/01/15 02:00:50;;;;;;;31.30;14.18;;;;;;;7.57;100.00;100445.50;4978724;28;20055;-64
2023/01/15 02:03:19;;;;;;;32.38;14.45;;;;;;;7.57;100.00;100440.25;4980239;28;20026;-63
2023/01/15 02:05:53;;;;;;;23.17;12.52;;;;;;;7.60;100.00;100439.16;4980680;28;20062;-63
2023/01/15 02:08:18;;;;;;;;;;;;;;;7.64;100.00;100441.41;4982166;28;20371;-63
2023/01/15 02:10:50;;;;;;;27.15;12.93;;;;;;;7.50;100.00;100452.25;4980671;28;19934;-65
2023/01/15 02:13:23;;;;;;;26.27;12.77;;;;;;;7.28;100.00;100444.38;4980940;28;20035;-63
2023/01/15 02:16:15;;;;;;;32.22;13.18;;;;;;;7.20;100.00;100439.72;4980594;28;20062;-63
2023/01/15 02:18:53;;;;;;;26.10;13.05;;;;;;;7.13;100.00;100438.56;4981039;28;20026;-64
2023/01/15 02:22:01;;;;;;;27.45;12.10;;;;;;;6.92;100.00;100433.19;4979459;28;20061;-63
2023/01/15 02:24:57;;;;;;;25.25;12.23;;;;;;;6.88;100.00;100437.03;4978557;28;20251;-65
2023/01/15 02:27:23;;;;;;;21.25;11.18;;;;;;;6.98;100.00;100440.59;4979770;28;20080;-63
2023/01/15 02:29:53;;;;;;;20.77;11.10;;;;;;;7.07;100.00;100430.31;4980810;28;20029;-63
2023/01/15 02:32:29;;;;;;;26.48;11.95;;;;;;;7.00;100.00;100438.69;4984964;28;20051;-62
2023/01/15 02:34:58;;;;;;;23.15;12.10;;;;;;;6.88;100.00;100430.94;4980709;28;20346;-63
2023/01/15 02:37:30;;;;;;;27.85;11.63;;;;;;;6.81;100.00;100432.38;4981954;28;20221;-64
2023/01/15 02:39:59;;;;;;;21.27;12.00;;;;;;;6.69;100.00;100434.19;4982342;28;20037;-64
2023/01/15 02:42:27;;;;;;;27.15;13.55;;;;;;;6.77;100.00;100429.16;4980167;28;20047;-63
2023/01/15 02:44:56;;;;;;;27.42;13.50;;;;;;;6.95;100.00;100425.06;4978269;28;20035;-63
2023/01/15 02:47:27;;;;;;;29.92;14.10;;;;;;;6.93;100.00;100426.13;4978437;28;20042;-63
2023/01/15 02:49:56;;;;;;;26.27;13.82;;;;;;;6.95;100.00;100429.50;4980784;28;20347;-65
2023/01/15 02:52:27;;;;;;;32.80;14.30;;;;;;;6.80;100.00;100434.16;4979145;28;20089;-65
2023/01/15 02:54:59;;;;;;;35.83;15.57;;;;;;;6.78;100.00;100430.81;4980511;28;20042;-63
2023/01/15 02:57:27;;;;;;;34.75;13.98;;;;;;;6.79;100.00;100431.66;4984121;28;20046;-63
2023/01/15 02:59:55;;;;;;;29.40;14.38;;;;;;;6.71;100.00;100432.25;4981102;28;20204;-65
2023/01/15 03:02:26;;;;;;;34.90;16.55;;;;;;;6.76;100.00;100438.00;4981572;28;20547;-63
2023/01/15 03:05:24;;;;;;;34.15;15.25;;;;;;;6.87;100.00;100431.91;4979421;28;20027;-64
2023/01/15 03:07:54;;;;;;;30.67;14.98;;;;;;;7.02;100.00;100438.56;4980175;28;20035;-63
2023/01/15 03:10:30;;;;;;;31.98;14.00;;;;;;;6.71;100.00;100437.53;4980757;28;20053;-63
2023/01/15 03:13:03;;;;;;;33.88;15.68;;;;;;;6.62;100.00;100433.00;4980283;28;20088;-63
2023/01/15 03:18:35;;;;;;;34.63;16.77;;;;;;;6.65;100.00;100433.59;4979759;28;20122;-62
2023/01/15 03:21:07;;;;;;;34.55;16.23;;;;;;;6.84;100.00;100440.03;4980046;28;20038;-63
2023/01/15 03:23:37;;;;;;;38.67;15.52;;;;;;;6.88;100.00;100433.56;4979981;28;20431;-65
2023/01/15 03:26:02;;;;;;;37.42;16.02;;;;;;;6.74;100.00;100434.66;4984557;28;20030;-65
2023/01/15 03:28:32;;;;;;;39.33;15.50;;;;;;;6.81;100.00;100430.59;4980223;28;20029;-63
2023/01/15 03:30:58;;;;;;;35.13;15.68;;;;;;;6.58;100.00;100424.50;4979794;28;20107;-63
2023/01/15 03:33:25;;;;;;;37.25;16.77;;;;;;;6.57;100.00;100421.97;4980681;28;20102;-64
2023/01/15 03:35:51;;;;;;;32.53;14.68;;;;;;;6.47;100.00;100419.22;4981014;28;20054;-63
2023/01/15 03:38:20;;;;;;;33.17;14.93;;;;;;;6.48;100.00;100415.66;4981195;28;20035;-63
2023/01/15 03:41:06;;;;;;;41.00;16.05;;;;;;;6.41;100.00;100409.19;4979749;28;20041;-63
2023/01/15 03:43:41;;;;;;;36.00;15.13;;;;;;;6.41;100.00;100409.19;4978591;28;20042;-65
2023/01/15 03:46:18;;;;;;;44.95;15.73;;;;;;;6.60;100.00;100414.69;4977311;28;20043;-63
2023/01/15 03:49:32;;;;;;;41.08;17.65;;;;;;;6.86;100.00;100417.91;4980049;28;20042;-64
2023/01/15 03:52:09;;;;;;;36.63;15.25;;;;;;;6.69;100.00;100418.41;4977561;28;20304;-66
2023/01/15 03:54:47;;;;;;;42.17;15.82;;;;;;;6.67;100.00;100422.94;4979114;28;20026;-63
2023/01/15 03:57:36;;;;;;;37.65;15.10;;;;;;;6.54;100.00;100419.59;4981640;28;20064;-64
2023/01/15 04:00:39;;;;;;;37.92;15.77;;;;;;;6.75;100.00;100430.22;4978949;28;20035;-64
2023/01/15 04:03:07;;;;;;;37.95;15.23;;;;;;;6.88;100.00;100436.19;4979826;28;20055;-63
2023/01/15 04:05:34;;;;;;;40.15;17.58;;;;;;;6.75;100.00;100436.34;4979328;28;20351;-62
2023/01/15 04:08:02;;;;;;;42.95;16.05;;;;;;;6.77;100.00;100439.69;4979634;28;20453;-63
2023/01/15 04:10:27;;;;;;;41.10;15.35;;;;;;;6.92;100.00;100441.09;4980832;28;20343;-65
2023/01/15 04:12:52;;;;;;;40.65;15.88;;;;;;;6.98;100.00;100435.34;4979744;28;20031;-64
2023/01/15 04:15:18;;;;;;;35.95;15.93;;;;;;;6.83;100.00;100441.00;4980854;28;20049;-63
2023/01/15 04:17:44;;;;;;;34.00;15.10;;;;;;;7.21;100.00;100435.28;4979824;28;20023;-65
2023/01/15 04:20:10;;;;;;;38.88;14.52;;;;;;;7.33;100.00;100434.34;4977842;28;20259;-64
2023/01/15 04:22:36;;;;;;;40.13;14.80;;;;;;;7.19;100.00;100437.22;4979290;28;20355;-63
2023/01/15 04:25:04;;;;;;;37.55;15.35;;;;;;;7.12;100.00;100438.66;4983286;28;20039;-63
2023/01/15 04:27:29;;;;;;;33.90;13.88;;;;;;;7.18;100.00;100441.66;4982845;28;20049;-64
2023/01/15 04:29:55;;;;;;;42.85;15.65;;;;;;;7.08;100.00;100442.50;4983760;28;20038;-63
2023/01/15 04:32:20;;;;;;;34.10;14.57;;;;;;;7.00;100.00;100454.50;4983451;28;20038;-63
2023/01/15 04:34:46;;;;;;;44.75;16.45;;;;;;;6.92;100.00;100448.16;4980649;28;20084;-66
2023/01/15 04:37:11;;;;;;;41.30;15.43;;;;;;;6.99;100.00;100455.44;4980948;28;20034;-64
2023/01/15 04:39:37;;;;;;;34.38;13.90;;;;;;;6.97;100.00;100456.53;4983023;28;20030;-64
2023/01/15 04:44:46;;;;;;;41.13;15.95;;;;;;;6.93;100.00;100461.19;4982011;28;20042;-65
2023/01/15 04:47:11;;;;;;;42.42;15.70;;;;;;;7.02;100.00;100464.91;4980931;28;20046;-64
2023/01/15 04:49:37;;;;;;;41.97;15.50;;;;;;;6.96;100.00;100460.97;4981200;28;20054;-63
2023/01/15 04:52:03;;;;;;;44.53;14.95;;;;;;;6.84;100.00;100461.94;4981490;28;20047;-62
2023/01/15 04:54:28;;;;;;;41.42;15.63;;;;;;;6.98;100.00;100458.19;4981453;28;20050;-63
2023/01/15 04:56:54;;;;;;;37.92;13.88;;;;;;;6.95;100.00;100461.91;4982552;28;20034;-64
2023/01/15 04:59:22;;;;;;;42.03;15.43;;;;;;;6.94;100.00;100465.50;4982950;28;20064;-62
2023/01/15 05:01:48;;;;;;;39.63;15.43;;;;;;;6.84;100.00;100472.47;4983191;28;20515;-63
2023/01/15 05:04:14;;;;;;;37.75;13.90;;;;;;;6.78;100.00;100472.94;4983237;28;20306;-62
2023/01/15 05:06:39;;;;;;;35.03;13.77;;;;;;;6.73;100.00;100465.41;4981566;28;20232;-64
2023/01/15 05:09:05;;;;;;;35.47;13.57;;;;;;;6.72;100.00;100468.16;4982702;28;20045;-65
2023/01/15 05:11:33;;;;;;;32.90;13.20;;;;;;;6.73;100.00;100469.84;4982267;28;20042;-66
2023/01/15 05:13:58;;;;;;;34.42;12.95;;;;;;;6.84;100.00;100467.19;4982756;28;20037;-63
2023/01/15 05:16:26;;;;;;;36.40;13.95;;;;;;;6.73;100.00;100470.66;4981950;28;20039;-63
2023/01/15 05:18:53;;;;;;;33.53;13.63;;;;;;;6.74;100.00;100471.50;4981419;28;20097;-65
2023/01/15 05:21:36;;;;;;;30.60;13.25;;;;;;;6.59;100.00;100473.53;4979443;28;20042;-64
2023/01/15 05:24:05;;;;;;;29.08;12.75;;;;;;;6.46;100.00;100472.81;4980411;28;20057;-63
2023/01/15 05:26:31;;;;;;;30.70;13.13;;;;;;;6.62;100.00;100477.72;4979646;28;20047;-62
2023/01/15 05:28:58;;;;;;;29.63;13.43;;;;;;;6.59;100.00;100476.16;4981668;28;20363;-63
2023/01/15 05:31:25;;;;;;;32.97;14.50;;;;;;;6.72;100.00;100474.25;4981956;28;20427;-63
2023/01/15 05:33:51;;;;;;;27.48;12.10;;;;;;;6.64;100.00;100473.19;4980645;28;20328;-64
2023/01/15 05:36:20;;;;;;;39.95;16.17;;;;;;;6.68;100.00;100480.72;4982282;28;20045;-65
2023/01/15 05:38:46;;;;;;;46.95;17.08;;;;;;;6.77;100.00;100479.16;4982177;28;20034;-63
2023/01/15 05:44:07;;;;;;;51.00;18.95;;;;;;;6.44;100.00;100481.78;4983050;28;20085;-66
2023/01/15 05:46:35;;;;;;;50.15;18.02;;;;;;;6.43;100.00;100483.56;4985320;28;20050;-64
2023/01/15 05:49:02;;;;;;;44.00;17.73;;;;;;;6.37;100.00;100484.03;4981593;28;20049;-62
2023/01/15 05:51:28;;;;;;;45.42;17.98;;;;;;;6.40;100.00;100486.44;4980711;28;20289;-62
2023/01/15 05:53:54;;;;;;;46.45;18.13;;;;;;;6.47;100.00;100495.53;4981265;28;20069;-62
2023/01/15 05:56:19;;;;;;;40.40;15.52;;;;;;;6.54;100.00;100482.75;4979894;28;20209;-63
2023/01/15 05:58:45;;;;;;;44.03;16.00;;;;;;;6.50;100.00;100487.41;4979820;28;20046;-64
2023/01/15 06:01:11;;;;;;;35.05;15.73;;;;;;;6.39;100.00;100490.03;4979941;28;20047;-63
2023/01/15 06:03:36;;;;;;;38.67;15.90;;;;;;;6.56;100.00;100479.03;4978010;28;20031;-65
2023/01/15 06:06:03;;;;;;;42.05;14.07;;;;;;;6.49;100.00;100482.25;4979677;28;20031;-63
2023/01/15 06:08:28;;;;;;;39.78;14.65;;;;;;;6.29;100.00;100487.25;4981104;28;20053;-63
2023/01/15 06:10:54;;;;;;;32.50;13.57;;;;;;;6.21;100.00;100481.69;4981461;28;20030;-64
2023/01/15 06:13:19;;;;;;;27.17;14.02;;;;;;;6.46;100.00;100493.00;4982732;28;20077;-65
2023/01/15 06:15:45;;;;;;;33.13;13.60;;;;;;;6.34;100.00;100485.09;4981558;28;20054;-63
2023/01/15 06:18:10;;;;;;;31.67;13.70;;;;;;;6.42;100.00;100488.94;4981979;28;20030;-62
2023/01/15 06:20:37;;;;;;;29.40;12.68;;;;;;;6.37;100.00;100489.28;4980609;28;20034;-63
2023/01/15 06:23:03;;;;;;;33.17;13.70;;;;;;;6.18;100.00;100494.25;4981283;28;20035;-63
2023/01/15 06:25:28;;;;;;;36.17;16.00;;;;;;;6.24;100.00;100489.41;4980283;28;20031;-62
2023/01/15 06:27:54;;;;;;;34.03;15.77;;;;;;;6.39;100.00;100484.75;4981944;28;20077;-63
2023/01/15 06:30:19;;;;;;;29.30;15.65;;;;;;;6.26;100.00;100492.75;4981313;28;20057;-65
2023/01/15 06:32:45;;;;;;;39.55;17.90;;;;;;;6.25;100.00;100491.06;4980102;28;20343;-63
2023/01/15 06:35:11;;;;;;;33.05;15.43;;;;;;;6.11;100.00;100487.78;4981135;28;20237;-63
2023/01/15 06:37:37;;;;;;;27.25;13.77;;;;;;;6.22;100.00;100486.00;4978972;28;20050;-65
2023/01/15 06:40:03;;;;;;;21.00;12.48;;;;;;;6.05;100.00;100491.69;4978231;28;20094;-64
2023/01/15 06:47:58;;;;;;;26.52;12.98;;;;;;;6.18;100.00;100494.25;4977063;28;20043;-63
2023/01/15 06:50:24;;;;;;;25.60;12.77;;;;;;;6.21;100.00;100494.84;4978734;28;20045;-64
2023/01/15 06:52:50;;;;;;;29.08;13.48;;;;;;;6.23;100.00;100503.47;4980317;28;20045;-63
2023/01/15 06:55:17;;;;;;;30.65;13.40;;;;;;;6.23;100.00;100502.63;4981578;28;20035;-62
2023/01/15 06:57:43;;;;;;;27.25;13.20;;;;;;;6.30;100.00;100495.97;4981495;28;20347;-63
2023/01/15 07:00:10;;;;;;;30.48;13.55;;;;;;;6.45;100.00;100505.34;4980572;28;20046;-63
2023/01/15 07:02:35;;;;;;;26.63;12.35;;;;;;;6.32;100.00;100505.44;4979504;28;20328;-64
2023/01/15 07:05:01;;;;;;;28.55;13.52;;;;;;;6.42;100.00;100495.03;4987507;28;20077;-62
2023/01/15 07:07:27;;;;;;;28.67;13.13;;;;;;;6.62;100.00;100498.78;4997202;28;20100;-63
2023/01/15 07:09:52;;;;;;;28.83;13.57;;;;;;;6.63;100.00;100490.75;4987704;28;20097;-66
2023/01/15 07:12:18;;;;;;;27.13;12.68;;;;;;;6.57;100.00;100496.50;4980905;28;20102;-65
2023/01/15 07:14:43;;;;;;;28.52;13.68;;;;;;;6.61;100.00;100503.19;4981444;28;20098;-63
2023/01/15 07:17:09;;;;;;;27.38;12.82;;;;;;;6.57;100.00;100506.19;4981268;28;20348;-63
2023/01/15 07:19:35;;;;;;;31.75;14.05;;;;;;;6.69;100.00;100497.34;4980631;28;20085;-64
2023/01/15 07:22:00;;;;;;;28.17;12.27;;;;;;;6.55;100.00;100489.69;4980025;28;20042;-62
2023/01/15 07:24:26;;;;;;;29.55;13.05;;;;;;;6.59;100.00;100497.22;4979981;28;20022;-66
2023/01/15 07:26:51;;;;;;;33.40;13.90;;;;;;;6.62;100.00;100510.13;4979531;28;20070;-63
2023/01/15 07:29:17;;;;;;;28.67;13.30;;;;;;;6.65;100.00;100504.63;4981242;28;20038;-64
2023/01/15 07:31:42;;;;;;;32.22;13.65;;;;;;;6.72;100.00;100505.00;4980955;28;20083;-63
2023/01/15 07:34:08;;;;;;;36.55;13.63;;;;;;;6.77;100.00;100505.47;4980046;28;20039;-63
2023/01/15 07:36:34;;;;;;;27.20;13.25;;;;;;;6.96;100.00;100510.16;4980081;28;20049;-65
2023/01/15 07:38:59;;;;;;;32.05;13.32;;;;;;;6.94;100.00;100512.06;4980566;28;20034;-63
2023/01/15 07:49:45;;;;;;;34.60;13.32;;;;;;;6.41;100.00;100517.03;4980141;28;20127;-62
2023/01/15 07:52:19;;;;;;;26.02;11.43;;;;;;;6.44;100.00;100519.44;4979744;28;20077;-63
2023/01/15 07:54:46;;;;;;;30.40;13.02;;;;;;;6.33;100.00;100517.63;4978960;28;20316;-63
2023/01/15 07:57:14;;;;;;;31.63;14.18;;;;;;;6.38;100.00;100507.59;4981206;28;20054;-65
2023/01/15 07:59:39;;;;;;;32.10;14.27;;;;;;;6.42;100.00;100516.09;4984667;28;20041;-65
2023/01/15 08:02:05;;;;;;;27.08;13.98;;;;;;;6.73;100.00;100507.50;4984576;28;20244;-64
2023/01/15 08:04:30;;;;;;;37.13;15.13;;;;;;;6.65;100.00;100516.97;4983334;28;20105;-63
2023/01/15 08:06:58;;;;;;;26.88;12.32;;;;;;;6.61;100.00;100531.31;4983670;28;20045;-65
2023/01/15 08:09:24;;;;;;;29.60;13.23;;;;;;;6.57;100.00;100529.88;4984148;28;20042;-65
2023/01/15 08:15:16;;;;;;;34.83;14.90;;;;;;;6.54;100.00;100536.19;4984817;28;20052;-63
2023/01/15 08:17:23;;;;;;;27.48;13.40;;;;;;;6.69;100.00;100531.56;4986017;28;20356;-63
2023/01/15 08:19:48;;;;;;;29.65;13.93;;;;;;;6.50;100.00;100531.28;4983930;28;20196;-62
2023/01/15 08:22:14;;;;;;;29.48;14.27;;;;;;;6.73;100.00;100533.00;4983830;28;20042;-65
2023/01/15 08:24:39;;;;;;;26.75;13.70;;;;;;;6.61;100.00;100533.94;4983172;28;20039;-63
2023/01/15 08:27:04;;;;;;;28.08;14.05;;;;;;;6.61;100.00;100532.16;4983861;28;20060;-63
2023/01/15 08:29:30;;;;;;;34.53;16.10;;;;;;;6.58;100.00;100536.81;4983497;28;20049;-63
2023/01/15 08:31:55;;;;;;;44.65;17.50;;;;;;;6.49;100.00;100533.09;4983190;28;20043;-65
2023/01/15 08:34:21;;;;;;;53.42;21.88;;;;;;;6.52;100.00;100534.66;4983332;28;20344;-65
2023/01/15 08:36:48;;;;;;;49.20;19.17;;;;;;;6.59;100.00;100539.31;4983744;28;20056;-62
2023/01/15 08:39:14;;;;;;;46.30;18.35;;;;;;;6.41;100.00;100524.94;4983944;28;20398;-63
2023/01/15 08:41:39;;;;;;;41.15;17.50;;;;;;;6.33;100.00;100527.31;4983131;28;20038;-65
2023/01/15 08:44:05;;;;;;;38.50;16.73;;;;;;;6.27;100.00;100519.88;4981886;28;20207;-64
2023/01/15 08:46:31;;;;;;;48.25;17.50;;;;;;;6.44;100.00;100519.44;4980686;28;20049;-62
2023/01/15 08:48:56;;;;;;;40.55;17.85;;;;;;;6.48;100.00;100523.50;4981373;28;20418;-63
2023/01/15 08:51:21;;;;;;;35.03;16.48;;;;;;;6.37;100.00;100521.69;4981156;28;20054;-62
2023/01/15 08:53:47;;;;;;;40.72;17.58;;;;;;;6.51;100.00;100512.75;4981148;28;20054;-64
2023/01/15 08:56:17;;;;;;;42.13;18.90;;;;;;;6.57;100.00;100520.19;4982569;28;20061;-64
2023/01/15 08:58:43;;;;;;;42.95;17.92;;;;;;;6.59;100.00;100518.28;4983262;28;20053;-62
2023/01/15 09:01:11;;;;;;;40.50;18.60;;;;;;;6.65;100.00;100523.06;4983601;28;20179;-64
2023/01/15 09:03:37;;;;;;;44.40;19.88;;;;;;;6.55;100.00;100522.09;4983122;28;20042;-65
2023/01/15 09:06:04;;;;;;;38.55;18.75;;;;;;;6.72;100.00;100508.47;4984326;28;20097;-63
2023/01/15 09:08:30;;;;;;;41.28;18.58;;;;;;;6.74;100.00;100516.25;4981894;28;20622;-62
2023/01/15 09:11:00;;;;;;;30.88;15.60;;;;;;;6.89;100.00;100511.59;4982402;28;20039;-63
2023/01/15 09:13:26;;;;;;;30.60;13.70;;;;;;;6.73;100.00;100510.16;4982949;28;20030;-64
2023/01/15 09:15:52;;;;;;;30.27;13.50;;;;;;;6.72;100.00;100505.84;4982305;28;20057;-64
2023/01/15 09:18:19;;;;;;;36.67;18.10;;;;;;;6.77;100.00;100502.00;4982119;28;20030;-63
2023/01/15 09:20:47;;;;;;;29.27;15.00;;;;;;;6.84;100.00;100503.22;4981691;28;20220;-64
2023/01/15 09:23:13;;;;;;;23.75;11.93;;;;;;;6.77;100.00;100502.84;4982942;28;20038;-65
2023/01/15 09:25:40;;;;;;;28.50;11.90;;;;;;;6.71;100.00;100506.78;4979394;28;20046;-63
2023/01/15 09:28:06;;;;;;;27.52;12.68;;;;;;;6.80;100.00;100501.78;4979954;28;20066;-64
2023/01/15 09:30:31;;;;;;;29.17;14.23;;;;;;;6.81;100.00;100498.19;4982976;28;20341;-65
2023/01/15 09:32:57;;;;;;;29.67;14.48;;;;;;;6.83;100.00;100493.63;4983117;28;20088;-63
2023/01/15 09:35:22;;;;;;;28.98;13.40;;;;;;;6.84;100.00;100493.50;4982235;28;20339;-64
2023/01/15 09:37:52;;;;;;;28.80;12.50;;;;;;;6.79;100.00;100486.94;4981911;28;20041;-63
2023/01/15 09:40:46;;;;;;;31.25;14.90;;;;;;;6.80;100.00;100481.56;4980971;28;20053;-64
2023/01/15 09:43:28;;;;;;;37.42;16.65;;;;;;;6.83;100.00;100483.94;4979269;28;20046;-62
2023/01/15 09:46:10;;;;;;;43.25;20.45;;;;;;;6.87;100.00;100485.38;4981596;28;20262;-63
2023/01/15 09:48:52;;;;;;;44.67;19.48;;;;;;;6.68;100.00;100478.09;4982499;28;20042;-65
2023/01/15 09:51:30;;;;;;;35.97;16.38;;;;;;;6.66;100.00;100481.78;4981553;28;20400;-65
2023/01/15 09:54:05;;;;;;;42.08;17.00;;;;;;;6.60;100.00;100474.38;4980873;28;20052;-62
2023/01/15 09:56:35;;;;;;;47.92;19.75;;;;;;;6.79;100.00;100471.97;4981236;28;20039;-69
2023/01/15 09:59:17;;;;;;;42.80;20.17;;;;;;;6.71;100.00;100474.38;4981777;28;20073;-62
2023/01/15 10:01:43;;;;;;;42.22;18.52;;;;;;;6.89;100.00;100472.09;4980035;28;20209;-62
2023/01/15 10:04:27;;;;;;;33.83;15.55;;;;;;;6.64;100.00;100474.00;4978895;28;20106;-64
2023/01/15 10:07:05;;;;;;;40.97;19.35;;;;;;;6.73;100.00;100464.56;4979855;28;20042;-66
2023/01/15 10:09:38;;;;;;;42.90;18.05;;;;;;;6.70;100.00;100454.28;4981037;28;20085;-67
2023/01/15 10:15:07;;;;;;;36.20;16.27;;;;;;;6.81;100.00;100454.28;4980672;28;20041;-65
2023/01/15 10:17:41;;;;;;;42.40;19.60;;;;;;;6.78;100.00;100451.03;4981841;28;20038;-65
2023/01/15 10:20:24;;;;;;;45.77;19.33;;;;;;;6.79;100.00;100447.47;4980583;28;20038;-65
2023/01/15 10:23:08;;;;;;;42.53;17.27;;;;;;;6.89;100.00;100441.34;4980740;28;20649;-64
2023/01/15 10:25:53;;;;;;;31.67;13.82;;;;;;;6.85;100.00;100432.00;4981143;28;20320;-62
2023/01/15 10:28:24;;;;;;;38.47;16.45;;;;;;;6.81;100.00;100425.31;4981316;28;20251;-62
2023/01/15 10:30:53;;;;;;;43.28;16.73;;;;;;;6.74;100.00;100421.50;4981154;28;20042;-62
2023/01/15 10:33:27;;;;;;;40.42;17.08;;;;;;;6.78;100.00;100420.28;4981921;28;20035;-63
2023/01/15 10:36:08;;;;;;;33.75;15.43;;;;;;;6.76;100.00;100419.59;4981456;28;20299;-63
2023/01/15 10:38:33;;;;;;;40.13;16.65;;;;;;;6.71;100.00;100412.03;4981178;28;20324;-64
2023/01/15 10:41:25;;;;;;;37.60;16.00;;;;;;;6.92;100.00;100403.41;4979977;28;20077;-65
2023/01/15 10:44:12;;;;;;;43.22;18.05;;;;;;;6.84;100.00;100404.00;4978462;28;20043;-65
2023/01/15 10:46:40;;;;;;;36.60;15.65;;;;;;;6.90;100.00;100395.63;4980749;28;20057;-64
2023/01/15 10:49:14;;;;;;;30.90;12.35;;;;;;;6.93;100.00;100405.06;4980778;28;20058;-64
2023/01/15 10:51:44;;;;;;;37.22;15.65;;;;;;;7.06;100.00;100397.88;4985416;28;20065;-63
2023/01/15 10:54:37;;;;;;;42.72;19.70;;;;;;;7.05;100.00;100397.03;4981403;28;20030;-62
2023/01/15 10:57:10;;;;;;;33.35;15.98;;;;;;;7.10;100.00;100388.75;4980731;28;20070;-62
2023/01/15 10:59:46;;;;;;;38.22;16.20;;;;;;;7.10;100.00;100382.66;4980886;28;20050;-65
2023/01/15 11:02:27;;;;;;;27.38;13.80;;;;;;;7.00;100.00;100375.50;4981910;28;20049;-64
2023/01/15 11:04:53;;;;;;;18.73;10.30;;;;;;;7.01;100.00;100374.53;4993117;28;20046;-64
2023/01/15 11:07:27;;;;;;;23.60;10.98;;;;;;;6.95;100.00;100367.13;4992618;28;20058;-63
2023/01/15 11:09:53;;;;;;;32.47;15.38;;;;;;;7.20;100.00;100370.41;4993341;28;20561;-63
2023/01/15 11:20:43;;;;;;;21.17;10.63;;;;;;;6.97;100.00;100352.06;4992397;28;19960;-64
2023/01/15 11:23:15;;;;;;;21.65;10.98;;;;;;;7.14;100.00;100348.03;4992012;28;20105;-63
2023/01/15 11:25:50;;;;;;;19.80;11.25;;;;;;;7.08;100.00;100353.81;4993660;28;20038;-63
2023/01/15 11:28:16;;;;;;;20.55;9.20;;;;;;;7.10;100.00;100341.34;4993182;28;20042;-62
2023/01/15 11:30:44;;;;;;;13.20;7.03;;;;;;;7.13;100.00;100343.75;4993507;28;20375;-62
2023/01/15 11:33:24;;;;;;;18.40;8.98;;;;;;;7.29;100.00;100338.09;4992089;28;20111;-63
2023/01/15 11:35:58;;;;;;;17.20;8.10;;;;;;;7.22;100.00;100335.09;4992703;28;20043;-65
2023/01/15 11:38:29;;;;;;;21.27;10.25;;;;;;;7.09;100.00;100330.94;4991596;28;20038;-64
2023/01/15 11:40:58;;;;;;;21.75;10.68;;;;;;;7.18;100.00;100336.31;4993209;28;20046;-62
2023/01/15 11:51:56;;;;;;;28.95;15.15;;;;;;;7.15;100.00;100319.91;4992729;28;20041;-64
2023/01/15 11:54:24;;;;;;;43.13;19.38;;;;;;;7.30;100.00;100318.69;4992307;28;20050;-65
2023/01/15 11:56:50;;;;;;;15.93;8.02;;;;;;;7.34;100.00;100322.72;4992827;28;20053;-62
2023/01/15 11:59:18;;;;;;;15.40;7.47;;;;;;;7.22;100.00;100319.28;4991903;28;20356;-63
2023/01/15 12:01:58;;;;;;;19.67;10.95;;;;;;;7.16;100.00;100314.53;4992385;28;20049;-63
2023/01/15 12:04:35;;;;;;;25.52;11.07;;;;;;;7.26;100.00;100312.78;4990054;28;20347;-64
2023/01/15 12:07:03;;;;;;;17.05;7.05;;;;;;;7.25;100.00;100305.84;4991235;28;20057;-63